createdAt,value
2019-01-14T00:00:02.384Z,6.20
2019-01-14T00:02:33.915Z,7.90
2019-01-14T00:05:09.598Z,5.20
2019-01-14T00:07:40.086Z,6.13
2019-01-14T00:10:11.131Z,5.47
2019-01-14T00:12:42.615Z,4.47
2019-01-14T00:15:16.599Z,5.53
2019-01-14T00:17:48.685Z,5.27
2019-01-14T00:20:19.777Z,5.67
2019-01-14T00:22:53.851Z,5.10
2019-01-14T00:25:26.236Z,4.30
2019-01-14T00:27:57.033Z,4.50
2019-01-14T00:30:30.653Z,5.90
2019-01-14T00:33:14.657Z,6.73
2019-01-14T00:35:48.355Z,4.83
2019-01-14T00:38:20.118Z,4.50
2019-01-14T00:40:53.599Z,3.27
2019-01-14T00:43:25.880Z,5.87
2019-01-14T00:46:00.047Z,4.33
2019-01-14T00:48:30.707Z,5.47
2019-01-14T00:51:01.715Z,4.37
2019-01-14T00:53:33.266Z,3.70
2019-01-14T00:56:03.912Z,4.00
2019-01-14T00:58:34.556Z,3.30
2019-01-14T01:01:17.962Z,4.37
2019-01-14T01:03:49.708Z,3.67
2019-01-14T01:06:24.714Z,3.90
2019-01-14T01:08:54.430Z,3.80
2019-01-14T01:11:26.805Z,2.93
2019-01-14T01:13:58.354Z,4.60
2019-01-14T01:16:29.405Z,4.10
2019-01-14T01:19:02.350Z,4.40
2019-01-14T01:21:33.249Z,4.03
2019-01-14T01:24:04.060Z,4.67
2019-01-14T01:26:36.152Z,3.03
2019-01-14T01:29:11.186Z,4.20
2019-01-14T01:31:42.454Z,5.93
2019-01-14T01:34:13.768Z,3.30
2019-01-14T01:36:44.621Z,4.60
2019-01-14T01:39:15.517Z,5.67
2019-01-14T01:41:46.980Z,4.40
2019-01-14T01:44:17.795Z,3.90
2019-01-14T01:46:49.478Z,4.80
2019-01-14T01:49:20.248Z,5.30
2019-01-14T01:51:51.018Z,3.90
2019-01-14T01:54:21.814Z,3.33
2019-01-14T01:56:53.010Z,5.07
2019-01-14T01:59:23.883Z,3.00
2019-01-14T02:01:55.122Z,4.30
2019-01-14T02:04:25.865Z,3.53
2019-01-14T02:06:56.857Z,3.40
2019-01-14T02:09:27.783Z,2.50
2019-01-14T02:11:58.485Z,3.10
2019-01-14T02:14:29.224Z,3.33
2019-01-14T02:17:00.129Z,2.83
2019-01-14T02:19:31.313Z,2.20
2019-01-14T02:22:03.117Z,2.87
2019-01-14T02:24:33.992Z,2.57
2019-01-14T02:27:05.527Z,3.50
2019-01-14T02:29:36.378Z,1.83
2019-01-14T02:32:07.521Z,2.50
2019-01-14T02:34:38.938Z,3.43
2019-01-14T02:37:10.110Z,3.73
2019-01-14T02:39:40.940Z,2.10
2019-01-14T02:42:11.943Z,2.77
2019-01-14T02:44:42.720Z,2.33
2019-01-14T02:47:13.438Z,2.90
2019-01-14T02:49:44.779Z,2.30
2019-01-14T02:52:15.363Z,2.80
2019-01-14T02:54:46.009Z,2.20
2019-01-14T02:57:17.052Z,2.10
2019-01-14T02:59:48.058Z,2.20
2019-01-14T03:02:18.870Z,3.40
2019-01-14T03:04:49.655Z,3.30
2019-01-14T03:07:20.369Z,2.37
2019-01-14T03:09:51.453Z,2.40
2019-01-14T03:12:22.410Z,2.00
2019-01-14T03:14:53.217Z,2.83
2019-01-14T03:17:24.057Z,3.50
2019-01-14T03:19:54.731Z,2.00
2019-01-14T03:22:25.522Z,2.20
2019-01-14T03:24:57.964Z,3.07
2019-01-14T03:27:28.750Z,2.57
2019-01-14T03:29:59.821Z,3.30
2019-01-14T03:32:30.919Z,3.20
2019-01-14T03:35:01.703Z,5.00
2019-01-14T03:37:32.444Z,3.73
2019-01-14T03:40:03.718Z,4.30
2019-01-14T03:42:34.723Z,3.90
2019-01-14T03:45:06.079Z,3.90
2019-01-14T03:47:37.389Z,4.30
2019-01-14T03:50:16.630Z,4.00
2019-01-14T03:52:47.496Z,3.80
2019-01-14T03:55:18.259Z,5.90
2019-01-14T03:57:49.336Z,4.63
2019-01-14T04:00:20.146Z,6.27
2019-01-14T04:02:51.196Z,5.63
2019-01-14T04:05:22.469Z,4.00
2019-01-14T04:07:53.949Z,4.40
2019-01-14T04:10:24.739Z,5.30
2019-01-14T04:12:55.587Z,4.30
2019-01-14T04:15:26.429Z,3.90
2019-01-14T04:17:57.292Z,4.50
2019-01-14T04:20:28.021Z,3.63
2019-01-14T04:22:58.817Z,3.40
2019-01-14T04:25:30.008Z,4.80
2019-01-14T04:28:00.890Z,3.40
2019-01-14T04:30:31.823Z,3.10
2019-01-14T04:33:02.736Z,6.87
2019-01-14T04:35:34.029Z,3.33
2019-01-14T04:38:04.802Z,4.20
2019-01-14T04:40:35.578Z,3.37
2019-01-14T04:43:06.617Z,5.07
2019-01-14T04:45:37.323Z,4.20
2019-01-14T04:48:08.210Z,3.30
2019-01-14T04:50:39.188Z,3.83
2019-01-14T04:53:10.400Z,4.20
2019-01-14T04:55:41.203Z,5.30
2019-01-14T04:58:13.094Z,3.57
2019-01-14T05:00:44.616Z,4.23
2019-01-14T05:03:15.458Z,3.60
2019-01-14T05:05:47.113Z,3.50
2019-01-14T05:08:18.644Z,3.00
2019-01-14T05:10:51.427Z,3.47
2019-01-14T05:13:23.260Z,2.30
2019-01-14T05:15:54.588Z,2.53
2019-01-14T05:18:25.927Z,2.93
2019-01-14T05:20:57.258Z,3.40
2019-01-14T05:23:28.232Z,3.27
2019-01-14T05:25:59.020Z,1.53
2019-01-14T05:28:30.201Z,2.57
2019-01-14T05:31:01.122Z,2.00
2019-01-14T05:33:31.999Z,2.30
2019-01-14T05:36:03.312Z,1.77
2019-01-14T05:38:34.090Z,2.50
2019-01-14T05:41:05.070Z,1.73
2019-01-14T05:43:36.427Z,2.20
2019-01-14T05:46:07.219Z,1.70
2019-01-14T05:48:38.087Z,2.00
2019-01-14T05:51:09.161Z,2.53
2019-01-14T05:53:39.971Z,2.40
2019-01-14T05:56:11.036Z,3.00
2019-01-14T05:58:42.170Z,2.10
2019-01-14T06:01:12.933Z,1.57
2019-01-14T06:03:48.379Z,7.93
2019-01-14T06:06:22.713Z,13.87
2019-01-14T06:08:53.969Z,13.90
2019-01-14T06:11:24.679Z,12.50
2019-01-14T06:13:55.592Z,10.20
2019-01-14T06:16:26.491Z,8.07
2019-01-14T06:18:57.296Z,8.40
2019-01-14T06:21:28.169Z,6.67
2019-01-14T06:23:58.986Z,5.20
2019-01-14T06:26:30.079Z,4.47
2019-01-14T06:29:00.835Z,7.10
2019-01-14T06:31:31.727Z,3.70
2019-01-14T06:34:02.821Z,3.53
2019-01-14T06:36:34.137Z,3.07
2019-01-14T06:39:07.821Z,3.07
2019-01-14T06:41:39.185Z,3.50
2019-01-14T06:44:09.962Z,2.27
2019-01-14T06:46:40.799Z,2.70
2019-01-14T06:49:11.465Z,2.20
2019-01-14T06:51:42.736Z,2.40
2019-01-14T06:54:13.555Z,3.67
2019-01-14T06:56:44.536Z,2.60
2019-01-14T06:59:15.427Z,3.20
2019-01-14T07:01:46.475Z,2.53
2019-01-14T07:04:17.255Z,2.30
2019-01-14T07:06:48.048Z,2.03
2019-01-14T07:09:18.947Z,2.27
2019-01-14T07:11:50.246Z,4.23
2019-01-14T07:14:21.024Z,2.70
2019-01-14T07:16:52.732Z,2.47
2019-01-14T07:19:24.086Z,2.27
2019-01-14T07:21:54.854Z,2.10
2019-01-14T07:24:25.726Z,1.90
2019-01-14T07:26:56.530Z,2.50
2019-01-14T07:29:27.300Z,1.67
2019-01-14T07:31:58.300Z,2.00
2019-01-14T07:34:29.109Z,2.27
2019-01-14T07:36:59.970Z,2.10
2019-01-14T07:39:30.824Z,2.67
2019-01-14T07:42:01.884Z,2.20
2019-01-14T07:44:32.882Z,2.13
2019-01-14T07:47:04.010Z,2.20
2019-01-14T07:49:35.040Z,1.60
2019-01-14T07:52:06.158Z,2.40
2019-01-14T07:54:37.061Z,1.90
2019-01-14T07:57:07.804Z,2.30
2019-01-14T07:59:38.740Z,1.50
2019-01-14T08:02:09.717Z,3.60
2019-01-14T08:04:40.740Z,1.80
2019-01-14T08:07:11.590Z,1.50
2019-01-14T08:09:42.410Z,2.20
2019-01-14T08:12:13.210Z,1.90
2019-01-14T08:14:44.410Z,1.50
2019-01-14T08:17:15.424Z,2.07
2019-01-14T08:19:46.578Z,3.17
2019-01-14T08:22:17.496Z,1.90
2019-01-14T08:24:48.858Z,2.27
2019-01-14T08:27:19.676Z,2.07
2019-01-14T08:29:50.418Z,2.60
2019-01-14T08:32:21.384Z,2.57
2019-01-14T08:34:53.191Z,2.00
2019-01-14T08:37:24.317Z,1.67
2019-01-14T08:39:55.173Z,1.53
2019-01-14T08:42:26.168Z,1.63
2019-01-14T08:44:57.435Z,2.60
2019-01-14T08:47:28.250Z,3.23
2019-01-14T08:49:59.509Z,2.77
2019-01-14T08:52:30.237Z,1.80
2019-01-14T08:55:01.231Z,1.43
2019-01-14T08:57:33.555Z,3.13
2019-01-14T09:00:06.027Z,1.77
2019-01-14T09:02:37.281Z,1.87
2019-01-14T09:05:08.909Z,1.57
2019-01-14T09:07:39.902Z,1.50
2019-01-14T09:10:13.775Z,1.90
2019-01-14T09:12:44.453Z,2.37
2019-01-14T09:15:18.216Z,1.30
2019-01-14T09:17:49.107Z,1.40
2019-01-14T09:20:21.492Z,1.90
2019-01-14T09:22:52.844Z,2.37
2019-01-14T09:25:24.381Z,1.93
2019-01-14T09:27:55.577Z,1.00
2019-01-14T09:30:26.598Z,1.67
2019-01-14T09:32:57.859Z,1.30
2019-01-14T09:35:28.906Z,1.27
2019-01-14T09:37:59.689Z,0.80
2019-01-14T09:40:31.225Z,2.13
2019-01-14T09:43:02.059Z,1.13
2019-01-14T09:45:33.045Z,1.03
2019-01-14T09:48:04.250Z,1.17
2019-01-14T09:50:35.126Z,1.33
2019-01-14T09:53:05.959Z,1.40
2019-01-14T09:55:36.944Z,1.43
2019-01-14T09:58:08.093Z,1.03
2019-01-14T10:00:39.041Z,1.60
2019-01-14T10:03:11.540Z,1.20
2019-01-14T10:05:42.932Z,1.70
2019-01-14T10:08:13.958Z,1.23
2019-01-14T10:10:44.742Z,2.10
2019-01-14T10:13:15.670Z,1.10
2019-01-14T10:15:46.402Z,1.50
2019-01-14T10:18:17.162Z,1.13
2019-01-14T10:20:48.134Z,1.70
2019-01-14T10:23:19.600Z,1.60
2019-01-14T10:25:50.951Z,1.43
2019-01-14T10:28:21.934Z,1.40
2019-01-14T10:30:52.906Z,1.70
2019-01-14T10:33:23.955Z,1.47
2019-01-14T10:35:54.882Z,1.17
2019-01-14T10:38:25.595Z,1.33
2019-01-14T10:40:56.546Z,1.20
2019-01-14T10:43:27.703Z,1.20
2019-01-14T10:45:58.494Z,1.37
2019-01-14T10:48:30.099Z,1.30
2019-01-14T10:51:02.401Z,1.27
2019-01-14T10:53:33.439Z,1.20
2019-01-14T10:56:04.298Z,1.10
2019-01-14T10:58:35.124Z,1.13
2019-01-14T11:01:10.744Z,1.60
2019-01-14T11:03:40.360Z,1.17
2019-01-14T11:06:13.549Z,1.20
2019-01-14T11:08:44.356Z,2.50
2019-01-14T11:11:15.613Z,1.20
2019-01-14T11:13:46.811Z,1.50
2019-01-14T11:16:17.915Z,1.90
2019-01-14T11:18:49.862Z,1.20
2019-01-14T11:21:20.814Z,2.20
2019-01-14T11:23:51.590Z,2.93
2019-01-14T11:26:23.051Z,1.40
2019-01-14T11:28:53.908Z,2.07
2019-01-14T11:31:24.609Z,2.60
2019-01-14T11:52:05.136Z,1.70
2019-01-14T11:54:36.949Z,2.20
2019-01-14T11:57:09.266Z,2.57
2019-01-14T11:59:40.230Z,1.77
2019-01-14T12:02:11.363Z,1.53
2019-01-14T12:04:42.269Z,1.77
2019-01-14T12:07:13.235Z,2.20
2019-01-14T12:09:44.122Z,1.70
2019-01-14T12:12:15.026Z,1.97
2019-01-14T12:14:45.798Z,2.17
2019-01-14T12:17:16.893Z,1.67
2019-01-14T12:19:47.719Z,2.13
2019-01-14T12:22:18.973Z,2.30
2019-01-14T12:24:52.619Z,1.77
2019-01-14T12:27:23.595Z,2.40
2019-01-14T12:29:54.966Z,1.93
2019-01-14T12:32:25.892Z,1.97
2019-01-14T12:34:56.790Z,2.83
2019-01-14T12:37:27.743Z,2.40
2019-01-14T12:39:58.924Z,2.13
2019-01-14T12:42:30.325Z,2.70
2019-01-14T12:45:01.521Z,2.30
2019-01-14T12:47:33.074Z,1.97
2019-01-14T12:50:05.398Z,2.20
2019-01-14T12:52:36.238Z,1.53
2019-01-14T12:55:10.990Z,2.37
2019-01-14T12:57:42.219Z,2.67
2019-01-14T13:00:21.180Z,2.10
2019-01-14T13:02:52.160Z,2.40
2019-01-14T13:05:23.970Z,2.00
2019-01-14T13:07:54.921Z,2.73
2019-01-14T13:10:25.725Z,1.70
2019-01-14T13:12:56.957Z,2.00
2019-01-14T13:15:28.638Z,2.60
2019-01-14T13:17:59.542Z,3.83
2019-01-14T13:20:31.032Z,2.07
2019-01-14T13:23:01.942Z,2.43
2019-01-14T13:25:33.354Z,2.07
2019-01-14T13:28:04.218Z,1.90
2019-01-14T13:30:35.048Z,1.80
2019-01-14T13:33:06.042Z,2.13
2019-01-14T13:35:37.200Z,2.10
2019-01-14T13:38:08.322Z,2.60
2019-01-14T13:40:39.212Z,2.80
2019-01-14T13:43:11.534Z,2.50
2019-01-14T13:45:43.768Z,3.40
2019-01-14T13:48:14.636Z,2.67
2019-01-14T13:50:45.457Z,2.93
2019-01-14T13:53:16.419Z,2.57
2019-01-14T13:55:47.491Z,2.33
2019-01-14T13:58:18.345Z,2.67
2019-01-14T14:00:49.266Z,2.20
2019-01-14T14:03:20.397Z,3.07
2019-01-14T14:05:51.835Z,2.70
2019-01-14T14:08:22.615Z,3.33
2019-01-14T14:10:53.390Z,2.93
2019-01-14T14:13:24.647Z,2.60
2019-01-14T14:15:55.792Z,2.80
2019-01-14T14:18:26.536Z,2.50
2019-01-14T14:20:57.328Z,2.13
2019-01-14T14:23:29.639Z,3.00
2019-01-14T14:26:00.425Z,3.60
2019-01-14T14:28:31.689Z,4.27
2019-01-14T14:31:04.072Z,2.83
2019-01-14T14:33:35.839Z,2.97
2019-01-14T14:36:07.323Z,3.10
2019-01-14T14:38:38.187Z,4.23
2019-01-14T14:41:09.781Z,2.83
2019-01-14T14:43:40.856Z,3.10
2019-01-14T14:46:12.941Z,2.30
2019-01-14T14:48:43.761Z,3.50
2019-01-14T14:51:14.651Z,3.23
2019-01-14T14:53:45.735Z,3.63
2019-01-14T14:56:16.487Z,3.37
2019-01-14T14:58:47.795Z,4.63
2019-01-14T15:01:19.693Z,2.63
2019-01-14T15:03:51.108Z,3.60
2019-01-14T15:06:22.303Z,3.17
2019-01-14T15:08:53.667Z,4.77
2019-01-14T15:11:25.979Z,3.20
2019-01-14T15:13:57.339Z,2.80
2019-01-14T15:16:28.197Z,3.93
2019-01-14T15:18:59.601Z,3.00
2019-01-14T15:21:30.513Z,3.27
2019-01-14T15:24:02.734Z,3.17
2019-01-14T15:26:35.238Z,3.40
2019-01-14T15:29:06.400Z,2.97
2019-01-14T15:31:37.674Z,3.90
2019-01-14T15:34:08.827Z,3.57
2019-01-14T15:36:40.040Z,3.27
2019-01-14T15:39:11.091Z,2.63
2019-01-14T15:41:41.871Z,5.53
2019-01-14T15:44:13.111Z,5.60
2019-01-14T15:46:44.662Z,4.50
2019-01-14T15:49:15.731Z,5.10
2019-01-14T15:51:49.568Z,4.87
2019-01-14T15:54:20.554Z,3.87
2019-01-14T15:56:51.670Z,4.17
2019-01-14T15:59:22.556Z,3.10
2019-01-14T16:01:59.075Z,4.13
2019-01-14T16:04:33.678Z,4.17
2019-01-14T16:07:05.337Z,4.43
2019-01-14T16:09:36.130Z,4.23
2019-01-14T16:12:07.028Z,3.40
2019-01-14T16:14:38.263Z,3.63
2019-01-14T16:17:09.308Z,3.57
2019-01-14T16:19:40.256Z,3.97
2019-01-14T16:22:11.119Z,4.20
2019-01-14T16:27:03.897Z,4.33
2019-01-14T16:29:35.022Z,3.77
2019-01-14T16:32:07.915Z,3.70
2019-01-14T16:34:38.956Z,3.17
2019-01-14T16:37:09.825Z,3.90
2019-01-14T16:39:40.844Z,3.00
2019-01-14T16:42:11.772Z,3.67
2019-01-14T16:44:43.085Z,3.37
2019-01-14T16:47:13.908Z,3.27
2019-01-14T16:49:44.825Z,3.60
2019-01-14T16:52:16.083Z,2.20
2019-01-14T16:54:46.985Z,3.80
2019-01-14T16:57:17.871Z,2.87
2019-01-14T16:59:48.981Z,2.30
2019-01-14T17:02:20.030Z,2.70
2019-01-14T17:04:55.070Z,2.90
2019-01-14T17:07:26.915Z,3.00
2019-01-14T17:09:57.996Z,2.87
2019-01-14T17:12:28.818Z,2.60
2019-01-14T17:14:59.937Z,3.00
2019-01-14T17:17:33.218Z,2.73
2019-01-14T17:20:03.548Z,2.70
2019-01-14T17:22:34.313Z,2.90
2019-01-14T17:25:06.855Z,3.10
2019-01-14T17:27:38.784Z,2.50
2019-01-14T17:30:14.408Z,2.30
2019-01-14T17:32:45.596Z,2.37
2019-01-14T17:35:19.859Z,3.50
2019-01-14T17:37:51.229Z,2.80
2019-01-14T17:40:22.981Z,2.80
2019-01-14T17:42:53.786Z,2.80
2019-01-14T17:45:24.885Z,3.33
2019-01-14T17:47:56.019Z,2.80
2019-01-14T17:50:30.163Z,3.40
2019-01-14T17:53:01.668Z,3.27
2019-01-14T17:55:32.861Z,2.60
2019-01-14T17:58:03.688Z,3.33
2019-01-14T18:00:35.303Z,2.90
2019-01-14T18:03:06.557Z,5.47
2019-01-14T18:05:37.405Z,3.70
2019-01-14T18:08:08.261Z,3.10
2019-01-14T18:10:40.255Z,3.97
2019-01-14T18:13:11.211Z,3.90
2019-01-14T18:15:42.131Z,3.40
2019-01-14T18:18:13.620Z,2.93
2019-01-14T18:20:44.292Z,4.00
2019-01-14T18:23:15.280Z,3.00
2019-01-14T18:25:46.189Z,3.00
2019-01-14T18:28:18.172Z,3.17
2019-01-14T18:30:48.977Z,4.70
2019-01-14T18:33:20.230Z,5.40
2019-01-14T18:35:51.056Z,5.57
2019-01-14T18:38:23.251Z,4.90
2019-01-14T18:40:54.232Z,4.93
2019-01-14T18:43:26.769Z,6.00
2019-01-14T18:45:58.044Z,4.30
2019-01-14T18:48:29.189Z,4.40
2019-01-14T18:51:00.015Z,4.37
2019-01-14T18:53:30.765Z,3.87
2019-01-14T18:56:01.736Z,3.93
2019-01-14T18:58:32.608Z,3.83
2019-01-14T19:01:03.502Z,3.63
2019-01-14T19:03:34.620Z,3.57
2019-01-14T19:06:05.397Z,4.57
2019-01-14T19:08:36.066Z,16.90
2019-01-14T19:11:07.648Z,13.20
2019-01-14T19:13:38.784Z,12.43
2019-01-14T19:16:09.619Z,11.73
2019-01-14T19:18:41.056Z,9.87
2019-01-14T19:21:12.181Z,8.13
2019-01-14T19:23:43.549Z,7.93
2019-01-14T19:26:14.678Z,6.50
2019-01-14T19:28:45.805Z,6.53
2019-01-14T19:31:16.872Z,5.97
2019-01-14T19:33:50.987Z,5.57
2019-01-14T19:36:22.051Z,4.83
2019-01-14T19:38:53.220Z,4.97
2019-01-14T19:41:24.256Z,4.47
2019-01-14T19:43:55.096Z,4.73
2019-01-14T19:46:27.250Z,4.20
2019-01-14T19:48:58.249Z,4.17
2019-01-14T19:51:29.700Z,5.87
2019-01-14T19:54:00.640Z,5.00
2019-01-14T19:56:32.109Z,4.40
2019-01-14T19:59:03.537Z,5.37
2019-01-14T20:01:34.440Z,3.77
2019-01-14T20:04:05.241Z,4.90
2019-01-14T20:06:36.870Z,5.23
2019-01-14T20:09:08.394Z,3.57
2019-01-14T20:11:39.087Z,4.10
2019-01-14T20:14:10.167Z,3.50
2019-01-14T20:16:41.271Z,4.27
2019-01-14T20:19:12.098Z,4.80
2019-01-14T20:21:43.606Z,5.50
2019-01-14T20:24:14.662Z,4.80
2019-01-14T20:26:46.018Z,4.90
2019-01-14T20:29:19.334Z,5.53
2019-01-14T20:31:50.633Z,5.40
2019-01-14T20:34:23.101Z,4.30
2019-01-14T20:36:54.445Z,4.73
2019-01-14T20:39:25.276Z,4.53
2019-01-14T20:41:56.287Z,5.50
2019-01-14T20:44:27.377Z,5.23
2019-01-14T20:46:58.703Z,3.83
2019-01-14T20:49:29.689Z,4.80
2019-01-14T20:52:00.618Z,4.63
2019-01-14T20:54:31.512Z,5.03
2019-01-14T20:57:02.446Z,6.70
2019-01-14T20:59:38.353Z,5.73
2019-01-14T21:02:06.059Z,5.03
2019-01-14T21:04:36.918Z,4.10
2019-01-14T21:07:08.217Z,3.97
2019-01-14T21:09:39.024Z,4.97
2019-01-14T21:12:09.816Z,4.60
2019-01-14T21:14:40.627Z,3.83
2019-01-14T21:17:12.082Z,3.37
2019-01-14T21:19:42.981Z,4.70
2019-01-14T21:22:13.605Z,4.07
2019-01-14T21:24:44.624Z,4.10
2019-01-14T21:27:15.402Z,5.00
2019-01-14T21:29:46.744Z,3.83
2019-01-14T21:32:17.734Z,4.03
2019-01-14T21:34:49.567Z,4.23
2019-01-14T21:37:20.226Z,4.10
2019-01-14T21:39:50.995Z,6.17
2019-01-14T21:42:21.701Z,3.37
2019-01-14T21:44:52.724Z,4.60
2019-01-14T21:47:23.958Z,3.40
2019-01-14T21:49:54.748Z,3.70
2019-01-14T21:52:25.625Z,4.50
2019-01-14T21:54:56.536Z,5.33
2019-01-14T21:57:27.630Z,3.67
2019-01-14T21:59:59.132Z,5.03
2019-01-14T22:02:29.936Z,3.13
2019-01-14T22:05:00.863Z,3.53
2019-01-14T22:07:31.486Z,3.60
2019-01-14T22:10:02.781Z,3.57
2019-01-14T22:12:34.342Z,3.73
2019-01-14T22:15:07.742Z,4.43
2019-01-14T22:17:38.975Z,2.80
2019-01-14T22:20:21.572Z,3.50
2019-01-14T22:22:52.728Z,5.00
2019-01-14T22:25:23.560Z,3.70
2019-01-14T22:27:54.512Z,3.20
2019-01-14T22:30:27.677Z,4.00
2019-01-14T22:32:58.744Z,3.53
2019-01-14T22:35:29.562Z,4.93
2019-01-14T22:38:01.567Z,3.83
2019-01-14T22:40:32.521Z,4.80
2019-01-14T22:43:04.392Z,3.43
2019-01-14T22:45:35.321Z,4.00
2019-01-14T22:48:06.048Z,3.87
2019-01-14T22:50:37.252Z,3.37
2019-01-14T22:53:08.499Z,2.93
2019-01-14T22:55:39.490Z,3.63
2019-01-14T22:58:10.346Z,3.10
2019-01-14T23:00:51.437Z,4.67
2019-01-14T23:03:22.757Z,3.40
2019-01-14T23:05:54.599Z,3.53
2019-01-14T23:08:26.544Z,3.57
2019-01-14T23:10:57.719Z,3.70
2019-01-14T23:13:28.912Z,3.63
2019-01-14T23:15:59.733Z,2.50
2019-01-14T23:18:30.995Z,2.83
2019-01-14T23:21:01.818Z,3.40
2019-01-14T23:23:32.701Z,2.23
2019-01-14T23:26:03.425Z,3.50
2019-01-14T23:28:34.219Z,2.50
2019-01-14T23:31:05.029Z,3.63
2019-01-14T23:33:36.849Z,2.70
2019-01-14T23:36:07.491Z,2.70
2019-01-14T23:38:38.469Z,1.70
2019-01-14T23:41:09.639Z,1.90
2019-01-14T23:43:40.447Z,2.47
2019-01-14T23:46:11.261Z,1.83
2019-01-14T23:48:42.415Z,2.53
2019-01-14T23:51:13.596Z,2.10
2019-01-14T23:53:44.637Z,1.97
2019-01-14T23:56:15.606Z,1.80
2019-01-14T23:58:46.317Z,2.23
